createdAt,value
2023-02-17T00:01:39.208Z,20.52
2023-02-17T00:04:06.150Z,21.30
2023-02-17T00:06:33.280Z,18.92
2023-02-17T00:09:00.686Z,20.05
2023-02-17T00:11:28.618Z,16.83
2023-02-17T00:13:56.597Z,16.58
2023-02-17T00:16:26.752Z,18.80
2023-02-17T00:18:59.236Z,17.67
2023-02-17T00:21:29.126Z,21.90
2023-02-17T00:23:57.811Z,17.92
2023-02-17T00:26:24.856Z,18.63
2023-02-17T00:28:51.804Z,17.25
2023-02-17T00:31:21.620Z,19.95
2023-02-17T00:33:49.019Z,19.75
2023-02-17T00:36:19.446Z,17.45
2023-02-17T00:38:49.925Z,16.48
2023-02-17T00:41:18.493Z,16.50
2023-02-17T00:43:46.170Z,16.73
2023-02-17T00:46:13.502Z,14.98
2023-02-17T00:48:41.013Z,15.30
2023-02-17T00:51:08.971Z,15.00
2023-02-17T00:53:36.298Z,13.20
2023-02-17T00:56:04.395Z,13.70
2023-02-17T00:58:31.569Z,12.73
2023-02-17T01:00:59.335Z,13.55
2023-02-17T01:03:27.028Z,13.15
2023-02-17T01:05:55.173Z,12.18
2023-02-17T01:08:23.390Z,13.07
2023-02-17T01:10:52.761Z,11.77
2023-02-17T01:13:19.935Z,11.70
2023-02-17T01:15:52.485Z,11.13
2023-02-17T01:18:23.274Z,10.75
2023-02-17T01:20:51.513Z,10.93
2023-02-17T01:23:18.797Z,12.00
2023-02-17T01:25:47.742Z,13.02
2023-02-17T01:28:19.845Z,14.52
2023-02-17T01:30:47.542Z,13.52
2023-02-17T01:33:14.804Z,14.35
2023-02-17T01:35:42.009Z,14.48
2023-02-17T01:38:09.199Z,13.32
2023-02-17T01:40:36.429Z,15.23
2023-02-17T01:43:03.757Z,16.13
2023-02-17T01:45:38.695Z,16.92
2023-02-17T01:48:13.022Z,15.65
2023-02-17T01:50:46.942Z,16.45
2023-02-17T01:53:17.867Z,14.70
2023-02-17T01:55:46.733Z,15.35
2023-02-17T01:58:18.043Z,15.68
2023-02-17T02:00:49.061Z,16.65
2023-02-17T02:03:16.576Z,16.85
2023-02-17T02:05:44.033Z,16.52
2023-02-17T02:08:13.260Z,19.45
2023-02-17T02:10:40.368Z,18.10
2023-02-17T02:13:08.263Z,21.10
2023-02-17T02:15:42.799Z,19.30
2023-02-17T02:18:34.966Z,17.60
2023-02-17T02:21:20.116Z,20.95
2023-02-17T02:24:09.768Z,21.02
2023-02-17T02:27:00.864Z,26.48
2023-02-17T02:30:00.208Z,21.42
2023-02-17T02:32:42.639Z,24.42
2023-02-17T02:35:31.457Z,25.48
2023-02-17T02:38:18.315Z,27.80
2023-02-17T02:40:50.321Z,19.95
2023-02-17T02:43:17.470Z,23.40
2023-02-17T02:45:45.030Z,21.40
2023-02-17T02:48:11.998Z,23.15
2023-02-17T02:50:59.228Z,23.38
2023-02-17T02:53:43.501Z,24.70
2023-02-17T02:56:22.635Z,21.02
2023-02-17T02:59:16.753Z,22.92
2023-02-17T03:02:12.274Z,24.88
2023-02-17T03:04:48.001Z,28.70
2023-02-17T03:07:21.705Z,26.50
2023-02-17T03:09:52.011Z,25.25
2023-02-17T03:12:19.919Z,25.83
2023-02-17T03:14:50.221Z,20.20
2023-02-17T03:17:17.916Z,23.85
2023-02-17T03:19:49.440Z,20.42
2023-02-17T03:22:30.738Z,23.45
2023-02-17T03:25:00.175Z,20.42
2023-02-17T03:27:28.083Z,21.65
2023-02-17T03:29:55.775Z,22.65
2023-02-17T03:32:22.940Z,22.52
2023-02-17T03:34:49.934Z,18.13
2023-02-17T03:37:17.656Z,18.08
2023-02-17T03:39:44.660Z,17.17
2023-02-17T03:42:14.338Z,20.30
2023-02-17T03:44:41.366Z,17.52
2023-02-17T03:47:08.453Z,21.52
2023-02-17T03:49:35.424Z,20.33
2023-02-17T03:52:02.299Z,18.98
2023-02-17T03:54:29.281Z,18.85
2023-02-17T03:56:56.526Z,18.80
2023-02-17T03:59:23.677Z,18.23
2023-02-17T04:01:50.721Z,17.98
2023-02-17T04:04:17.768Z,16.52
2023-02-17T04:06:44.871Z,15.98
2023-02-17T04:09:11.986Z,17.95
2023-02-17T04:11:39.042Z,16.45
2023-02-17T04:14:06.038Z,16.13
2023-02-17T04:16:33.299Z,16.77
2023-02-17T04:19:00.222Z,14.48
2023-02-17T04:21:27.189Z,16.25
2023-02-17T04:23:55.252Z,14.00
2023-02-17T04:26:22.252Z,13.57
2023-02-17T04:28:49.180Z,14.32
2023-02-17T04:31:16.323Z,14.95
2023-02-17T04:33:43.279Z,14.95
2023-02-17T04:36:11.571Z,14.50
2023-02-17T04:38:39.452Z,12.15
2023-02-17T04:41:07.062Z,18.13
2023-02-17T04:43:34.247Z,16.67
2023-02-17T04:46:01.097Z,16.85
2023-02-17T04:48:28.588Z,16.17
2023-02-17T04:50:55.745Z,17.10
2023-02-17T04:53:22.795Z,17.85
2023-02-17T04:55:51.857Z,19.40
2023-02-17T04:58:19.660Z,20.77
2023-02-17T05:00:48.326Z,20.50
2023-02-17T05:03:15.920Z,21.63
2023-02-17T05:05:42.933Z,21.98
2023-02-17T05:08:10.156Z,22.98
2023-02-17T05:10:37.162Z,21.77
2023-02-17T05:13:04.369Z,24.33
2023-02-17T05:15:33.145Z,25.25
2023-02-17T05:18:02.065Z,25.52
2023-02-17T05:20:29.551Z,23.63
2023-02-17T05:22:56.535Z,29.10
2023-02-17T05:25:23.559Z,24.40
2023-02-17T05:27:50.579Z,24.73
2023-02-17T05:30:17.628Z,23.85
2023-02-17T05:32:47.185Z,21.52
2023-02-17T05:35:14.196Z,26.92
2023-02-17T05:37:41.261Z,24.75
2023-02-17T05:40:09.050Z,24.50
2023-02-17T05:42:36.195Z,22.85
2023-02-17T05:45:03.744Z,26.17
2023-02-17T05:47:30.776Z,28.20
2023-02-17T05:49:57.705Z,28.00
2023-02-17T05:52:24.626Z,25.85
2023-02-17T05:54:51.533Z,29.52
2023-02-17T05:57:18.562Z,26.05
2023-02-17T05:59:45.584Z,23.33
2023-02-17T06:02:12.582Z,27.05
2023-02-17T06:04:39.705Z,24.40
2023-02-17T06:07:06.661Z,25.92
2023-02-17T06:09:33.616Z,24.85
2023-02-17T06:12:00.637Z,24.55
2023-02-17T06:14:27.663Z,27.92
2023-02-17T06:16:57.068Z,26.88
2023-02-17T06:19:24.447Z,26.98
2023-02-17T06:21:51.568Z,22.50
2023-02-17T06:24:18.496Z,24.45
2023-02-17T06:26:45.383Z,22.52
2023-02-17T06:29:12.476Z,25.23
2023-02-17T06:31:39.962Z,26.40
2023-02-17T06:34:07.020Z,22.00
2023-02-17T06:36:34.035Z,22.95
2023-02-17T06:39:01.214Z,24.63
2023-02-17T06:41:28.175Z,27.45
2023-02-17T06:43:55.032Z,24.50
2023-02-17T06:46:22.319Z,24.67
2023-02-17T06:48:49.342Z,25.45
2023-02-17T06:51:16.332Z,23.20
2023-02-17T06:53:43.275Z,25.60
2023-02-17T06:56:10.264Z,23.33
2023-02-17T06:58:38.059Z,23.05
2023-02-17T07:01:05.547Z,23.42
2023-02-17T07:03:32.827Z,23.05
2023-02-17T07:06:00.501Z,25.90
2023-02-17T07:08:27.513Z,25.23
2023-02-17T07:10:55.675Z,23.70
2023-02-17T07:13:22.671Z,25.70
2023-02-17T07:15:49.565Z,24.63
2023-02-17T07:18:16.823Z,25.73
2023-02-17T07:20:43.776Z,26.30
2023-02-17T07:23:10.796Z,25.38
2023-02-17T07:25:37.918Z,21.88
2023-02-17T07:28:05.076Z,21.25
2023-02-17T07:30:32.068Z,23.55
2023-02-17T07:32:59.026Z,19.08
2023-02-17T07:35:26.027Z,22.15
2023-02-17T07:37:52.968Z,25.65
2023-02-17T07:40:20.020Z,22.63
2023-02-17T07:42:47.094Z,24.42
2023-02-17T07:45:14.217Z,21.58
2023-02-17T07:47:41.285Z,22.05
2023-02-17T07:50:08.965Z,25.38
2023-02-17T07:52:35.968Z,22.15
2023-02-17T07:55:03.488Z,21.75
2023-02-17T07:57:30.963Z,22.92
2023-02-17T07:59:57.883Z,21.52
2023-02-17T08:02:24.922Z,21.00
2023-02-17T08:04:52.743Z,22.17
2023-02-17T08:07:19.918Z,24.17
2023-02-17T08:10:05.417Z,23.70
2023-02-17T08:12:50.682Z,24.58
2023-02-17T08:15:17.711Z,25.88
2023-02-17T08:17:44.589Z,25.05
2023-02-17T08:20:13.699Z,23.70
2023-02-17T08:22:40.733Z,22.38
2023-02-17T08:25:07.868Z,20.35
2023-02-17T08:27:34.862Z,24.20
2023-02-17T08:30:02.176Z,22.20
2023-02-17T08:32:29.229Z,22.08
2023-02-17T08:34:57.298Z,19.77
2023-02-17T08:37:24.979Z,18.83
2023-02-17T08:39:52.061Z,18.63
2023-02-17T08:42:20.034Z,17.88
2023-02-17T08:44:47.192Z,19.35
2023-02-17T08:47:14.241Z,17.00
2023-02-17T08:49:41.406Z,16.13
2023-02-17T08:52:08.638Z,15.32
2023-02-17T08:54:38.648Z,18.45
2023-02-17T08:57:06.094Z,17.42
2023-02-17T08:59:33.009Z,16.02
2023-02-17T09:02:02.983Z,14.05
2023-02-17T09:04:30.289Z,16.42
2023-02-17T09:07:01.368Z,14.15
2023-02-17T09:09:31.697Z,15.32
2023-02-17T09:11:59.347Z,14.70
2023-02-17T09:14:26.687Z,13.48
2023-02-17T09:16:54.783Z,14.82
2023-02-17T09:19:23.043Z,13.32
2023-02-17T09:21:50.196Z,10.60
2023-02-17T09:24:18.396Z,11.20
2023-02-17T09:26:45.699Z,12.73
2023-02-17T09:29:12.774Z,11.02
2023-02-17T09:31:40.038Z,12.68
2023-02-17T09:34:09.502Z,10.68
2023-02-17T09:36:41.636Z,13.00
2023-02-17T09:39:12.305Z,14.23
2023-02-17T09:41:47.912Z,10.38
2023-02-17T09:44:26.070Z,10.40
2023-02-17T09:47:06.905Z,9.30
2023-02-17T09:49:42.438Z,9.20
2023-02-17T09:52:17.202Z,8.25
2023-02-17T09:55:06.472Z,9.60
2023-02-17T09:57:45.795Z,8.63
2023-02-17T10:00:26.028Z,9.15
2023-02-17T10:02:59.677Z,11.25
2023-02-17T10:05:33.443Z,9.57
2023-02-17T10:08:12.500Z,8.35
2023-02-17T10:11:01.505Z,8.35
2023-02-17T10:13:32.401Z,8.07
2023-02-17T10:16:06.008Z,9.32
2023-02-17T10:18:47.666Z,11.02
2023-02-17T10:21:22.225Z,8.77
2023-02-17T10:23:51.335Z,9.32
2023-02-17T10:26:53.591Z,7.15
2023-02-17T10:29:46.694Z,7.07
2023-02-17T10:32:13.908Z,6.57
2023-02-17T10:34:53.174Z,6.65
2023-02-17T10:37:58.710Z,9.93
2023-02-17T10:40:28.038Z,7.47
2023-02-17T10:42:58.852Z,8.40
2023-02-17T10:45:42.091Z,8.50
2023-02-17T10:48:23.502Z,6.72
2023-02-17T10:50:51.336Z,8.13
2023-02-17T10:53:20.601Z,7.10
2023-02-17T10:55:54.641Z,6.82
2023-02-17T10:58:36.612Z,7.45
2023-02-17T11:01:06.268Z,9.18
2023-02-17T11:03:34.482Z,7.47
2023-02-17T11:06:05.157Z,8.90
2023-02-17T11:08:44.535Z,5.75
2023-02-17T11:11:25.656Z,8.18
2023-02-17T11:14:31.137Z,8.75
2023-02-17T11:17:13.307Z,8.60
2023-02-17T11:19:40.465Z,9.20
2023-02-17T11:22:30.012Z,9.43
2023-02-17T11:25:19.570Z,9.95
2023-02-17T11:28:19.464Z,9.30
2023-02-17T11:30:52.927Z,8.18
2023-02-17T11:36:39.150Z,7.97
2023-02-17T11:39:23.612Z,10.75
2023-02-17T11:41:50.881Z,9.90
2023-02-17T11:44:26.799Z,10.85
2023-02-17T11:47:09.108Z,9.43
2023-02-17T11:49:51.572Z,9.27
2023-02-17T11:55:19.178Z,11.13
2023-02-17T11:58:12.461Z,13.70
2023-02-17T12:00:57.756Z,10.15
2023-02-17T12:04:09.586Z,10.35
2023-02-17T12:07:18.603Z,10.23
2023-02-17T12:10:07.332Z,11.57
2023-02-17T12:13:27.665Z,11.45
2023-02-17T12:16:38.601Z,12.70
2023-02-17T12:19:55.249Z,11.02
2023-02-17T12:22:59.556Z,11.48
2023-02-17T12:26:11.947Z,9.60
2023-02-17T12:28:52.053Z,8.25
2023-02-17T12:31:41.754Z,10.23
2023-02-17T12:34:20.930Z,12.07
2023-02-17T12:36:56.681Z,10.45
2023-02-17T12:39:42.474Z,9.77
2023-02-17T12:42:45.894Z,13.07
2023-02-17T12:45:23.919Z,12.55
2023-02-17T12:47:56.782Z,12.30
2023-02-17T12:51:19.231Z,11.45
2023-02-17T12:54:25.981Z,12.50
2023-02-17T12:57:09.012Z,9.60
2023-02-17T13:00:00.218Z,12.68
2023-02-17T13:02:29.352Z,12.77
2023-02-17T13:05:01.792Z,9.80
2023-02-17T13:10:29.886Z,13.65
2023-02-17T13:13:11.763Z,13.48
2023-02-17T13:15:43.203Z,9.57
2023-02-17T13:18:31.676Z,11.63
2023-02-17T13:21:15.916Z,11.07
2023-02-17T13:24:13.020Z,11.77
2023-02-17T13:26:59.548Z,12.88
2023-02-17T13:30:05.067Z,10.60
2023-02-17T13:32:48.020Z,12.20
2023-02-17T13:35:26.819Z,10.52
2023-02-17T13:38:02.940Z,14.47
2023-02-17T13:40:32.216Z,9.23
2023-02-17T13:43:19.257Z,16.02
2023-02-17T13:46:05.709Z,11.40
2023-02-17T13:48:35.493Z,10.75
2023-02-17T13:51:05.193Z,13.00
2023-02-17T13:53:38.228Z,11.70
2023-02-17T13:56:27.244Z,12.05
2023-02-17T13:58:54.897Z,12.63
2023-02-17T14:01:43.949Z,10.30
2023-02-17T14:04:46.261Z,11.07
2023-02-17T14:07:13.300Z,13.27
2023-02-17T14:09:42.471Z,8.52
2023-02-17T14:12:23.545Z,9.88
2023-02-17T14:14:50.799Z,13.57
2023-02-17T14:17:32.950Z,8.38
2023-02-17T14:20:03.225Z,10.45
2023-02-17T14:22:39.567Z,7.95
2023-02-17T14:25:13.774Z,8.65
2023-02-17T14:27:50.244Z,10.23
2023-02-17T14:31:02.705Z,7.10
2023-02-17T14:33:29.974Z,9.93
2023-02-17T14:36:04.107Z,9.60
2023-02-17T14:38:36.661Z,10.43
2023-02-17T14:41:05.205Z,8.63
2023-02-17T14:43:45.991Z,10.63
2023-02-17T14:46:14.461Z,10.88
2023-02-17T14:48:41.637Z,10.07
2023-02-17T14:51:14.318Z,7.75
2023-02-17T14:53:41.966Z,10.75
2023-02-17T14:56:19.963Z,7.57
2023-02-17T14:58:47.894Z,9.20
2023-02-17T15:01:17.891Z,9.75
2023-02-17T15:03:48.319Z,8.45
2023-02-17T15:06:58.905Z,8.93
2023-02-17T15:10:01.052Z,14.20
2023-02-17T15:12:31.391Z,10.32
2023-02-17T15:15:04.304Z,10.68
2023-02-17T15:17:34.279Z,8.00
2023-02-17T15:20:08.670Z,8.30
2023-02-17T15:22:55.434Z,8.95
2023-02-17T15:25:33.299Z,10.43
2023-02-17T15:28:04.581Z,11.38
2023-02-17T15:30:44.582Z,10.10
2023-02-17T15:38:27.961Z,9.05
2023-02-17T15:41:03.121Z,9.63
2023-02-17T15:46:11.500Z,8.07
2023-02-17T15:48:47.173Z,9.23
2023-02-17T15:54:40.140Z,9.13
2023-02-17T15:57:08.094Z,8.55
2023-02-17T15:59:41.751Z,11.00
2023-02-17T16:08:29.539Z,11.52
2023-02-17T16:11:25.032Z,8.13
2023-02-17T16:14:00.595Z,9.48
2023-02-17T16:16:32.852Z,9.65
2023-02-17T16:21:28.014Z,9.77
2023-02-17T16:23:59.845Z,10.63
2023-02-17T16:26:35.996Z,12.75
2023-02-17T16:29:19.024Z,7.55
2023-02-17T16:31:57.139Z,18.08
2023-02-17T16:34:26.150Z,11.02
2023-02-17T16:36:57.628Z,11.65
2023-02-17T16:39:25.002Z,7.93
2023-02-17T16:42:58.808Z,11.40
2023-02-17T16:45:21.875Z,12.73
2023-02-17T16:47:56.107Z,9.68
2023-02-17T16:50:34.169Z,14.15
2023-02-17T16:53:04.789Z,11.45
2023-02-17T16:55:34.460Z,11.40
2023-02-17T16:58:02.821Z,8.50
2023-02-17T17:00:32.476Z,11.82
2023-02-17T17:02:59.843Z,12.70
2023-02-17T17:05:29.074Z,9.15
2023-02-17T17:08:27.964Z,10.73
2023-02-17T17:10:55.179Z,11.82
2023-02-17T17:13:46.267Z,9.13
2023-02-17T17:16:16.224Z,7.22
2023-02-17T17:18:49.041Z,9.07
2023-02-17T17:21:24.053Z,9.02
2023-02-17T17:24:09.544Z,13.57
2023-02-17T17:29:49.009Z,11.20
2023-02-17T17:32:16.421Z,8.20
2023-02-17T17:34:44.161Z,10.68
2023-02-17T17:37:11.234Z,9.27
2023-02-17T17:39:39.693Z,10.00
2023-02-17T17:42:06.674Z,11.93
2023-02-17T17:44:36.206Z,12.65
2023-02-17T17:47:03.919Z,19.30
2023-02-17T17:49:31.074Z,12.30
2023-02-17T17:51:58.438Z,8.88
2023-02-17T17:54:25.543Z,12.20
2023-02-17T17:56:52.702Z,10.43
2023-02-17T17:59:20.063Z,11.68
2023-02-17T18:01:52.996Z,10.48
2023-02-17T18:04:29.197Z,10.63
2023-02-17T18:07:04.991Z,11.35
2023-02-17T18:10:01.453Z,13.43
2023-02-17T18:12:48.012Z,11.27
2023-02-17T18:15:19.261Z,11.40
2023-02-17T18:18:28.497Z,14.40
2023-02-17T18:21:16.188Z,10.95
2023-02-17T18:23:46.329Z,11.88
2023-02-17T18:26:16.317Z,12.65
2023-02-17T18:28:59.013Z,8.13
2023-02-17T18:31:28.681Z,13.20
2023-02-17T18:33:57.049Z,12.68
2023-02-17T18:36:29.325Z,15.43
2023-02-17T18:38:56.531Z,14.00
2023-02-17T18:41:29.866Z,19.55
2023-02-17T18:44:00.892Z,25.65
2023-02-17T18:46:33.327Z,20.35
2023-02-17T18:49:00.894Z,18.45
2023-02-17T18:51:28.148Z,16.60
2023-02-17T18:54:02.627Z,17.50
2023-02-17T18:56:32.710Z,16.27
2023-02-17T18:59:00.222Z,16.23
2023-02-17T19:01:45.828Z,15.60
2023-02-17T19:04:21.685Z,16.95
2023-02-17T19:06:48.865Z,24.83
2023-02-17T19:09:17.313Z,21.17
2023-02-17T19:11:46.260Z,19.38
2023-02-17T19:14:15.943Z,17.75
2023-02-17T19:16:45.476Z,14.48
2023-02-17T19:19:42.527Z,14.50
2023-02-17T19:22:13.433Z,15.68
2023-02-17T19:24:41.965Z,18.60
2023-02-17T19:27:13.297Z,19.50
2023-02-17T19:32:48.202Z,16.13
2023-02-17T19:35:15.371Z,17.10
2023-02-17T19:37:42.515Z,15.82
2023-02-17T19:40:10.159Z,16.27
2023-02-17T19:42:37.509Z,18.67
2023-02-17T19:45:04.687Z,17.73
2023-02-17T19:47:31.901Z,15.95
2023-02-17T19:50:02.037Z,14.70
2023-02-17T19:52:29.165Z,18.88
2023-02-17T19:55:01.672Z,17.90
2023-02-17T19:57:32.103Z,18.67
2023-02-17T20:00:08.977Z,17.63
2023-02-17T20:02:36.941Z,16.52
2023-02-17T20:05:04.731Z,21.85
2023-02-17T20:07:32.002Z,19.90
2023-02-17T20:10:02.333Z,19.25
2023-02-17T20:12:29.666Z,21.15
2023-02-17T20:14:59.319Z,21.20
2023-02-17T20:17:28.557Z,19.15
2023-02-17T20:19:56.028Z,21.40
2023-02-17T20:22:28.372Z,21.27
2023-02-17T20:25:05.771Z,21.98
2023-02-17T20:27:33.531Z,24.10
2023-02-17T20:36:25.277Z,23.25
2023-02-17T20:39:22.934Z,22.50
2023-02-17T20:41:50.382Z,17.95
2023-02-17T20:44:18.190Z,25.38
2023-02-17T20:46:45.904Z,31.70
2023-02-17T20:49:14.974Z,22.17
2023-02-17T20:51:42.156Z,21.63
2023-02-17T20:54:09.404Z,25.13
2023-02-17T20:56:39.246Z,26.70
2023-02-17T20:59:08.975Z,30.67
2023-02-17T21:01:36.822Z,29.13
2023-02-17T21:04:03.721Z,31.60
2023-02-17T21:06:33.987Z,24.70
2023-02-17T21:09:04.894Z,25.40
2023-02-17T21:11:33.480Z,29.83
2023-02-17T21:14:03.008Z,29.13
2023-02-17T21:16:31.443Z,26.95
2023-02-17T21:18:59.786Z,21.02
2023-02-17T21:21:27.986Z,27.33
2023-02-17T21:23:58.025Z,31.15
2023-02-17T21:26:25.650Z,25.55
2023-02-17T21:28:52.901Z,25.52
2023-02-17T21:31:20.422Z,25.80
2023-02-17T21:33:47.870Z,30.52
2023-02-17T21:36:28.993Z,30.05
2023-02-17T21:39:17.476Z,35.05
2023-02-17T21:41:44.589Z,32.28
2023-02-17T21:44:31.625Z,31.20
2023-02-17T21:46:58.875Z,26.70
2023-02-17T21:49:26.092Z,28.98
2023-02-17T21:52:08.880Z,28.80
2023-02-17T21:54:44.701Z,26.73
2023-02-17T21:57:34.072Z,31.17
2023-02-17T22:01:54.361Z,29.35
2023-02-17T22:04:22.292Z,31.70
2023-02-17T22:06:52.451Z,31.27
2023-02-17T22:09:19.673Z,28.08
2023-02-17T22:11:49.497Z,31.05
2023-02-17T22:14:20.977Z,27.67
2023-02-17T22:16:49.115Z,25.17
2023-02-17T22:19:31.367Z,28.88
2023-02-17T22:24:49.645Z,30.58
2023-02-17T22:27:20.042Z,25.88
2023-02-17T22:29:47.809Z,33.10
2023-02-17T22:32:14.921Z,29.55
2023-02-17T22:34:42.026Z,31.40
2023-02-17T22:37:09.015Z,30.98
2023-02-17T22:39:35.974Z,36.28
2023-02-17T22:42:04.492Z,34.97
2023-02-17T22:44:40.564Z,35.08
2023-02-17T22:47:07.641Z,34.42
2023-02-17T22:49:34.614Z,31.13
2023-02-17T22:52:01.620Z,32.70
2023-02-17T22:54:30.833Z,31.92
2023-02-17T22:56:57.903Z,30.48
2023-02-17T22:59:25.048Z,24.92
2023-02-17T23:01:52.054Z,30.13
2023-02-17T23:04:19.232Z,26.67
2023-02-17T23:06:46.146Z,27.00
2023-02-17T23:09:17.060Z,30.30
2023-02-17T23:11:50.223Z,38.30
2023-02-17T23:14:30.875Z,30.85
2023-02-17T23:17:01.570Z,31.08
2023-02-17T23:19:29.633Z,31.45
2023-02-17T23:21:59.595Z,26.95
2023-02-17T23:24:27.446Z,29.98
2023-02-17T23:26:56.668Z,30.52
2023-02-17T23:29:24.314Z,28.60
2023-02-17T23:31:51.420Z,35.88
2023-02-17T23:34:18.738Z,30.10
2023-02-17T23:36:46.724Z,33.17
2023-02-17T23:39:15.403Z,30.80
2023-02-17T23:41:42.962Z,31.05
2023-02-17T23:44:12.073Z,27.73
2023-02-17T23:46:40.171Z,24.80
2023-02-17T23:49:07.294Z,26.27
2023-02-17T23:51:34.327Z,24.65
2023-02-17T23:54:01.421Z,27.02
2023-02-17T23:56:34.158Z,33.45
2023-02-17T23:59:01.695Z,32.55
